Terminal Aerodrome Forecast
Issued by NWS Cheyenne, WY

Home | Current Version | Previous Version | Text Only | Print | Product List | Glossary On
Versions: 1 2 3 4 5 6 7 8 9 10 11 12 13 14 15 16 17
000
FTUS45 KCYS 240521
TAFCYS
TAF
KCYS 240521Z 2406/2506 17012G20KT P6SM SKC
     FM241000 23008KT P6SM SKC
     FM242100 15008KT P6SM VCTS SCT080 BKN100CB
     FM250100 17008KT P6SM BKN150=

USA.gov is the U.S. government's official web portal to all federal, state and local government web resources and services.